.
WxDataArchive / Data Records for 2012-04-19
2012-04-18 April 2012 2012-04-20

Data Records for Thursday, 19 April 2012

Time	Temp	Chill	HIndex	Humid	Dewpt	 Wind 	HiWind	WindDir	Rain 	Barom 
-----	----	-----	------	-----	-----	------	------	-------	-----	----- 
00:00	55.0	55.0	55.0	51	37.2	0	1	248	0.00	30.005 
00:05	55.1	55.1	55.1	51	37.3	0	1	248	0.00	30.005 
00:10	55.1	55.1	55.1	51	37.3	0	1	248	0.00	30.005 
00:15	55.1	55.1	55.1	52	37.8	0	0	---	0.00	30.006 
00:20	55.0	55.0	55.0	53	38.2	0	0	---	0.00	30.006 
00:25	55.0	55.0	55.0	52	37.7	0	1	248	0.00	30.006 
00:30	55.3	55.3	55.3	52	38.0	0	1	248	0.00	30.003 
00:35	55.4	55.4	55.4	52	38.1	0	1	248	0.00	30.003 
00:40	55.6	55.6	55.6	52	38.3	0	1	248	0.00	30.003 
00:45	55.7	55.7	55.7	52	38.3	0	1	248	0.00	30.006 
00:50	55.7	55.7	55.7	52	38.3	0	2	248	0.00	30.006 
00:55	56.0	56.0	56.0	51	38.1	0	1	248	0.00	30.006 
01:00	56.0	56.0	56.0	51	38.1	0	1	248	0.00	30.007 
01:05	56.2	56.2	56.2	51	38.3	0	1	248	0.00	30.007 
01:10	56.3	56.3	56.3	51	38.4	0	1	248	0.00	30.007 
01:15	56.2	56.2	56.2	51	38.3	0	1	248	0.00	30.006 
01:20	56.2	56.2	56.2	51	38.3	0	1	248	0.00	30.006 
01:25	56.0	56.0	56.0	51	38.1	0	2	248	0.00	30.006 
01:30	56.0	56.0	56.0	51	38.1	0	1	248	0.00	30.005 
01:35	56.0	56.0	56.0	52	38.6	0	2	248	0.00	30.005 
01:40	55.9	55.9	55.9	52	38.5	0	1	248	0.00	30.005 
01:45	55.7	55.7	55.7	52	38.3	0	0	---	0.00	30.005 
01:50	55.6	55.6	55.6	53	38.7	0	0	---	0.00	30.005 
01:55	55.4	55.4	55.4	53	38.6	0	0	---	0.00	30.005 
02:00	55.1	55.1	55.1	54	38.8	0	0	---	0.00	30.005 
02:05	54.8	54.8	54.8	54	38.5	0	0	---	0.00	30.005 
02:10	54.7	54.7	54.7	55	38.9	0	0	---	0.00	30.005 
02:15	54.7	54.7	54.7	56	39.3	0	1	248	0.00	30.002 
02:20	54.7	54.7	54.7	56	39.3	0	1	248	0.00	30.002 
02:25	54.8	54.8	54.8	56	39.4	0	1	248	0.00	30.002 
02:30	55.0	55.0	55.0	56	39.6	0	1	248	0.00	29.995 
02:35	55.1	55.1	55.1	56	39.7	0	2	225	0.00	29.995 
02:40	55.6	55.6	55.6	56	40.2	0	2	225	0.00	29.995 
02:45	56.0	56.0	56.0	55	40.1	0	3	225	0.00	29.990 
02:50	56.3	56.3	56.3	54	39.9	0	2	225	0.00	29.990 
02:55	56.6	56.6	56.6	54	40.1	0	1	225	0.00	29.990 
03:00	56.9	56.9	56.9	53	39.9	0	2	225	0.00	29.991 
03:05	57.0	57.0	57.0	53	40.0	0	1	225	0.00	29.991 
03:10	57.3	57.3	57.3	53	40.3	0	3	225	0.00	29.991 
03:15	57.5	57.5	57.5	52	40.0	0	3	225	0.00	29.987 
03:20	57.6	57.6	57.6	52	40.1	1	2	225	0.00	29.987 
03:25	57.8	57.8	57.8	51	39.8	1	3	225	0.00	29.987 
03:30	58.0	58.0	58.0	50	39.5	1	3	225	0.00	29.985 
03:35	58.1	58.1	58.1	50	39.6	0	3	248	0.00	29.985 
03:40	58.1	58.1	58.1	51	40.1	1	5	248	0.00	29.985 
03:45	58.1	58.1	58.1	50	39.6	1	4	248	0.00	29.984 
03:50	58.0	58.0	58.0	51	40.0	0	2	248	0.00	29.984 
03:55	58.0	58.0	58.0	52	40.5	0	2	248	0.00	29.984 
04:00	57.8	57.8	57.8	52	40.3	0	2	248	0.00	29.984 
04:05	57.8	57.8	57.8	52	40.3	0	2	248	0.00	29.984 
04:10	57.6	57.6	57.6	52	40.1	0	2	248	0.00	29.984 
04:15	57.6	57.6	57.6	52	40.1	0	2	248	0.00	29.981 
04:20	57.6	57.6	57.6	52	40.1	0	1	248	0.00	29.981 
04:25	57.5	57.5	57.5	53	40.5	0	1	248	0.00	29.981 
04:30	57.5	57.5	57.5	53	40.5	0	2	248	0.00	29.982 
04:35	57.5	57.5	57.5	54	41.0	0	2	248	0.00	29.982 
04:40	57.3	57.3	57.3	54	40.8	0	1	248	0.00	29.982 
04:45	57.3	57.3	57.3	54	40.8	0	2	248	0.00	29.981 
04:50	57.5	57.5	57.5	54	41.0	0	2	248	0.00	29.981 
04:55	57.5	57.5	57.5	54	41.0	0	1	248	0.00	29.981 
05:00	57.5	57.5	57.5	54	41.0	0	2	248	0.00	29.978 
05:05	57.5	57.5	57.5	54	41.0	0	2	248	0.00	29.978 
05:10	57.5	57.5	57.5	54	41.0	0	1	248	0.00	29.978 
05:15	57.5	57.5	57.5	54	41.0	0	2	248	0.00	29.983 
05:20	57.5	57.5	57.5	54	41.0	0	2	248	0.00	29.983 
05:25	57.5	57.5	57.5	54	41.0	0	2	248	0.00	29.983 
05:30	57.5	57.5	57.5	55	41.5	0	1	248	0.00	29.982 
05:35	57.3	57.3	57.3	55	41.3	0	0	---	0.00	29.982 
05:40	57.3	57.3	57.3	56	41.7	0	1	248	0.00	29.982 
05:45	57.2	57.2	57.2	56	41.6	0	2	248	0.00	29.984 
05:50	57.2	57.2	57.2	56	41.6	0	1	248	0.00	29.984 
05:55	57.0	57.0	57.0	56	41.5	0	1	248	0.00	29.984 
06:00	57.0	57.0	57.0	56	41.5	0	1	248	0.00	29.984 
06:05	56.9	56.9	56.9	57	41.8	0	1	248	0.00	29.984 
06:10	56.9	56.9	56.9	57	41.8	0	1	248	0.00	29.984 
06:15	57.0	57.0	57.0	56	41.5	0	2	248	0.00	29.982 
06:20	57.0	57.0	57.0	56	41.5	0	3	248	0.00	29.982 
06:25	57.0	57.0	57.0	56	41.5	0	2	248	0.00	29.982 
06:30	57.0	57.0	57.0	56	41.5	1	4	248	0.00	29.982 
06:35	57.0	57.0	57.0	57	41.9	0	3	248	0.00	29.982 
06:40	56.9	56.9	56.9	57	41.8	0	2	248	0.00	29.982 
06:45	56.6	56.6	56.6	57	41.5	0	1	248	0.00	29.988 
06:50	56.6	56.6	56.6	57	41.5	0	2	248	0.00	29.988 
06:55	56.5	56.5	56.5	58	41.9	0	2	248	0.00	29.988 
07:00	56.2	56.2	56.2	58	41.6	0	2	248	0.00	29.991 
07:05	56.2	56.2	56.2	58	41.6	0	3	248	0.00	29.991 
07:10	56.0	56.0	56.0	58	41.4	0	2	248	0.00	29.991 
07:15	56.0	56.0	56.0	59	41.9	0	1	248	0.00	29.993 
07:20	55.9	55.9	55.9	59	41.8	0	1	248	0.00	29.993 
07:25	55.6	55.6	55.6	60	41.9	0	2	248	0.00	29.993 
07:30	55.6	55.6	55.6	60	41.9	0	3	248	0.00	29.994 
07:35	55.4	55.4	55.4	60	41.7	0	3	248	0.00	29.994 
07:40	55.3	55.3	55.3	61	42.1	0	2	248	0.00	29.994 
07:45	55.4	55.4	55.4	61	42.2	0	1	248	0.00	29.998 
07:50	55.4	55.4	55.4	61	42.2	0	1	248	0.00	29.998 
07:55	55.7	55.7	55.7	61	42.5	0	1	248	0.00	29.998 
08:00	56.0	56.0	56.0	60	42.3	0	2	248	0.00	30.000 
08:05	56.3	56.3	56.3	60	42.6	0	2	248	0.00	30.000 
08:10	56.6	56.6	56.6	60	42.9	0	2	248	0.00	30.000 
08:15	56.7	56.7	56.7	60	43.0	0	1	248	0.00	30.007 
08:20	56.9	56.9	56.9	60	43.2	0	2	248	0.00	30.007 
08:25	56.9	56.9	56.9	59	42.7	0	1	248	0.00	30.007 
08:30	57.0	57.0	57.0	60	43.3	0	2	248	0.00	30.007 
08:35	57.2	57.2	57.2	59	43.0	0	2	248	0.00	30.007 
08:40	57.5	57.5	57.5	60	43.7	1	3	248	0.00	30.007 
08:45	58.0	58.0	58.0	59	43.8	0	2	248	0.00	30.005 
08:50	58.1	58.1	58.1	59	43.8	0	2	248	0.00	30.005 
08:55	58.3	58.3	58.3	58	43.6	1	3	248	0.00	30.005 
09:00	58.4	58.4	58.4	58	43.7	1	4	248	0.00	30.004 
09:05	58.7	58.7	58.7	58	44.0	0	2	248	0.00	30.004 
09:10	58.9	58.9	58.9	56	43.2	1	6	292	0.00	30.004 
09:15	59.0	59.0	59.0	57	43.8	1	3	225	0.00	30.009 
09:20	59.0	59.0	59.0	57	43.8	0	3	225	0.00	30.009 
09:25	59.0	59.0	59.0	57	43.8	0	2	225	0.00	30.009 
09:30	59.2	59.2	59.2	58	44.4	0	2	225	0.00	30.010 
09:35	59.2	59.2	59.2	57	44.0	0	2	225	0.00	30.010 
09:40	59.3	59.3	59.3	56	43.6	1	3	225	0.00	30.010 
09:45	59.5	59.5	59.5	58	44.7	1	4	225	0.00	30.007 
09:50	59.6	59.6	59.6	57	44.3	0	2	0	0.00	30.007 
09:55	59.9	59.9	59.9	56	44.2	0	2	315	0.00	30.007 
10:00	60.1	60.1	60.1	56	44.3	1	3	292	0.00	30.007 
10:05	60.4	60.4	60.4	56	44.6	1	3	270	0.00	30.007 
10:10	60.7	60.7	60.7	55	44.4	1	3	248	0.00	30.007 
10:15	61.0	61.0	61.0	55	44.7	2	4	248	0.00	30.007 
10:20	61.2	61.2	61.2	54	44.4	1	3	248	0.00	30.007 
10:25	61.2	61.2	61.2	54	44.4	1	6	248	0.00	30.007 
10:30	61.3	61.3	61.3	54	44.5	1	3	248	0.00	30.009 
10:35	61.5	61.5	61.5	54	44.7	1	3	248	0.00	30.009 
10:40	61.8	61.8	61.8	55	45.5	0	2	248	0.00	30.009 
10:45	62.0	62.0	62.0	54	45.2	1	3	248	0.00	30.008 
10:50	62.3	62.3	62.3	53	44.9	0	2	248	0.00	30.008 
10:55	62.6	62.6	62.6	53	45.2	1	3	248	0.00	30.008 
11:00	63.1	63.1	63.1	52	45.2	0	2	248	0.00	30.005 
11:05	63.7	63.7	63.7	53	46.2	0	1	248	0.00	30.005 
11:10	64.2	64.2	64.2	52	46.2	0	2	248	0.00	30.005 
11:15	64.7	64.7	64.7	52	46.7	1	3	248	0.00	30.004 
11:20	65.2	65.2	65.2	49	45.6	1	3	248	0.00	30.004 
11:25	65.8	65.8	65.8	49	46.1	1	3	248	0.00	30.004 
11:30	66.3	66.3	66.3	49	46.6	0	2	248	0.00	30.001 
11:35	66.8	66.8	66.8	48	46.5	1	3	248	0.00	30.001 
11:40	66.9	66.9	66.9	47	46.0	1	2	248	0.00	30.001 
11:45	67.1	67.1	67.1	46	45.6	1	4	248	0.00	29.999 
11:50	67.4	67.4	67.4	48	47.0	2	4	248	0.00	29.999 
11:55	67.8	67.8	67.8	46	46.3	2	4	248	0.00	29.999 
12:00	68.1	68.1	68.1	46	46.5	1	3	248	0.00	29.990 
12:05	68.6	68.6	68.6	47	47.6	1	3	248	0.00	29.990 
12:10	69.9	69.9	69.9	46	48.2	1	3	248	0.00	29.990 
12:15	71.3	71.3	71.3	46	49.4	1	3	248	0.00	29.982 
12:20	71.8	71.8	71.8	42	47.5	1	4	248	0.00	29.982 
12:25	72.5	72.5	72.5	40	46.8	2	5	248	0.00	29.982 
12:30	72.8	72.8	72.8	39	46.4	2	5	248	0.00	29.979 
12:35	73.2	73.2	73.2	37	45.4	2	5	248	0.00	29.979 
12:40	73.0	73.0	73.0	40	47.2	2	5	270	0.00	29.979 
12:45	73.3	73.3	73.3	39	46.8	2	4	248	0.00	29.972 
12:50	73.2	73.2	73.2	36	44.6	3	7	270	0.00	29.972 
12:55	73.5	73.5	73.5	36	44.9	3	6	248	0.00	29.972 
13:00	73.9	73.9	73.9	34	43.7	2	6	248	0.00	29.969 
13:05	74.2	74.2	74.2	34	44.0	3	5	248	0.00	29.969 
13:10	74.2	74.2	74.2	34	44.0	2	4	248	0.00	29.969 
13:15	74.6	74.6	74.6	35	45.1	2	5	248	0.00	29.965 
13:20	74.0	74.0	74.0	35	44.6	2	6	248	0.00	29.965 
13:25	74.0	74.0	74.0	35	44.6	3	5	270	0.00	29.965 
13:30	74.0	74.0	74.0	35	44.6	2	4	270	0.00	29.964 
13:35	74.0	74.0	74.0	35	44.6	1	4	270	0.00	29.964 
13:40	74.0	74.0	74.0	35	44.6	1	4	248	0.00	29.964 
13:45	73.9	73.9	73.9	35	44.5	1	3	248	0.00	29.961 
13:50	73.5	73.5	73.5	34	43.4	2	5	248	0.00	29.961 
13:55	73.2	73.2	73.2	36	44.6	1	4	248	0.00	29.961 
14:00	73.0	73.0	73.0	38	45.9	2	4	270	0.00	29.951 
14:05	73.5	73.5	73.5	36	44.9	1	3	270	0.00	29.951 
14:10	74.0	74.0	74.0	34	43.8	2	5	248	0.00	29.951 
14:15	74.4	74.4	74.4	36	45.7	1	3	248	0.00	29.947 
14:20	74.9	74.9	74.9	36	46.1	1	4	248	0.00	29.947 
14:25	75.4	75.4	77.4	35	45.8	1	3	248	0.00	29.947 
14:30	75.8	75.8	77.5	34	45.4	1	4	248	0.00	29.940 
14:35	76.3	76.3	77.5	32	44.3	1	4	248	0.00	29.940 
14:40	76.5	76.5	77.7	33	45.2	2	5	248	0.00	29.940 
14:45	76.5	76.5	77.5	31	43.6	2	4	248	0.00	29.931 
14:50	76.1	76.1	77.4	31	43.3	2	5	248	0.00	29.931 
14:55	76.3	76.3	77.5	32	44.3	1	4	248	0.00	29.931 
15:00	76.5	76.5	77.7	33	45.2	2	6	248	0.00	29.931 
15:05	76.3	76.3	77.6	34	45.8	1	2	270	0.00	29.931 
15:10	76.3	76.3	77.5	32	44.3	2	5	248	0.00	29.931 
15:15	76.5	76.5	77.6	32	44.4	1	4	248	0.00	29.918 
15:20	76.7	76.7	77.9	36	47.7	1	3	248	0.00	29.918 
15:25	76.8	76.8	77.8	34	46.3	0	2	270	0.00	29.918 
15:30	77.4	77.4	78.2	36	48.3	0	3	270	0.00	29.911 
15:35	77.4	77.4	77.9	31	44.4	2	4	112	0.00	29.911 
15:40	77.2	77.2	77.7	29	42.5	2	5	248	0.00	29.911 
15:45	76.8	76.8	77.7	31	43.9	1	6	248	0.00	29.901 
15:50	77.0	77.0	77.7	31	44.0	2	7	90	0.00	29.901 
15:55	76.8	76.8	77.8	33	45.5	1	5	90	0.00	29.901 
16:00	76.8	76.8	77.7	31	43.9	1	5	270	0.00	29.893 
16:05	77.2	77.2	77.7	29	42.5	2	5	270	0.00	29.893 
16:10	77.2	77.2	77.9	33	45.8	1	3	315	0.00	29.893 
16:15	77.2	77.2	77.8	30	43.3	2	5	270	0.00	29.883 
16:20	77.4	77.4	77.9	31	44.4	1	4	270	0.00	29.883 
16:25	77.2	77.2	77.6	28	41.6	2	10	248	0.00	29.883 
16:30	77.2	77.2	77.6	27	40.6	2	7	248	0.00	29.874 
16:35	77.2	77.2	77.6	28	41.6	2	7	248	0.00	29.874 
16:40	77.2	77.2	77.6	27	40.6	3	7	248	0.00	29.874 
16:45	77.0	77.0	77.5	28	41.4	3	8	248	0.00	29.871 
16:50	77.0	77.0	77.5	27	40.4	2	6	225	0.00	29.871 
16:55	76.8	76.8	77.5	28	41.2	2	6	248	0.00	29.871 
17:00	76.5	76.5	77.3	28	41.0	2	5	225	0.00	29.868 
17:05	76.1	76.1	77.3	30	42.4	1	4	248	0.00	29.868 
17:10	76.0	76.0	77.3	30	42.3	1	3	248	0.00	29.868 
17:15	75.8	75.8	77.3	32	43.8	1	4	270	0.00	29.865 
17:20	75.4	75.4	77.1	31	42.6	1	6	112	0.00	29.865 
17:25	75.6	75.6	77.2	31	42.8	1	4	248	0.00	29.865 
17:30	76.0	76.0	77.3	31	43.2	1	5	68	0.00	29.862 
17:35	76.3	76.3	77.5	31	43.4	1	4	90	0.00	29.862 
17:40	76.5	76.5	77.3	28	41.0	1	4	90	0.00	29.862 
17:45	76.3	76.3	77.2	27	39.8	1	5	248	0.00	29.861 
17:50	75.8	75.8	77.1	28	40.4	2	4	270	0.00	29.861 
17:55	75.3	75.3	76.8	27	39.0	1	4	270	0.00	29.861 
18:00	75.1	75.1	76.8	28	39.8	1	4	248	0.00	29.858 
18:05	75.1	75.1	77.0	30	41.5	0	3	248	0.00	29.858 
18:10	75.4	75.4	77.0	29	40.9	0	3	248	0.00	29.858 
18:15	75.8	75.8	77.0	27	39.4	1	6	270	0.00	29.856 
18:20	76.0	76.0	77.1	28	40.5	1	4	248	0.00	29.856 
18:25	75.8	75.8	77.1	28	40.4	1	4	248	0.00	29.856 
18:30	75.4	75.4	76.9	28	40.0	1	4	248	0.00	29.856 
18:35	75.1	75.1	76.7	27	38.8	1	5	248	0.00	29.856 
18:40	74.6	74.6	74.6	29	40.2	1	5	270	0.00	29.856 
18:45	74.4	74.4	74.4	31	41.8	0	3	135	0.00	29.856 
18:50	74.0	74.0	74.0	30	40.6	1	3	90	0.00	29.856 
18:55	74.0	74.0	74.0	30	40.6	1	3	90	0.00	29.856 
19:00	74.2	74.2	74.2	29	39.9	1	4	248	0.00	29.855 
19:05	74.0	74.0	74.0	29	39.7	1	4	68	0.00	29.855 
19:10	73.9	73.9	73.9	29	39.6	1	3	68	0.00	29.855 
19:15	73.7	73.7	73.7	30	40.3	1	4	248	0.00	29.852 
19:20	73.3	73.3	73.3	30	40.0	0	3	248	0.00	29.852 
19:25	73.0	73.0	73.0	32	41.4	0	2	248	0.00	29.852 
19:30	72.7	72.7	72.7	31	40.3	1	3	248	0.00	29.850 
19:35	72.7	72.7	72.7	30	39.5	1	4	270	0.00	29.850 
19:40	72.5	72.5	72.5	32	41.0	0	2	270	0.00	29.850 
19:45	72.1	72.1	72.1	32	40.6	0	2	270	0.00	29.854 
19:50	72.0	72.0	72.0	33	41.3	0	3	225	0.00	29.854 
19:55	71.8	71.8	71.8	32	40.3	0	3	68	0.00	29.854 
20:00	71.6	71.6	71.6	34	41.7	0	0	---	0.00	29.854 
20:05	71.3	71.3	71.3	33	40.7	0	1	68	0.00	29.854 
20:10	70.8	70.8	70.8	34	41.0	0	1	68	0.00	29.854 
20:15	70.4	70.4	70.4	35	41.4	0	1	68	0.00	29.850 
20:20	69.9	69.9	69.9	36	41.7	0	1	68	0.00	29.850 
20:25	69.4	69.4	69.4	37	42.0	0	1	68	0.00	29.850 
20:30	69.1	69.1	69.1	37	41.7	0	3	68	0.00	29.851 
20:35	68.8	68.8	68.8	38	42.1	0	1	68	0.00	29.851 
20:40	68.4	68.4	68.4	39	42.5	0	0	---	0.00	29.851 
20:45	68.1	68.1	68.1	39	42.2	0	0	---	0.00	29.848 
20:50	67.8	67.8	67.8	39	41.9	0	0	---	0.00	29.848 
20:55	67.4	67.4	67.4	40	42.2	0	0	---	0.00	29.848 
21:00	67.1	67.1	67.1	40	42.0	0	0	---	0.00	29.852 
21:05	66.8	66.8	66.8	41	42.3	0	0	---	0.00	29.852 
21:10	66.6	66.6	66.6	41	42.2	0	0	---	0.00	29.852 
21:15	66.4	66.4	66.4	41	42.0	0	1	68	0.00	29.852 
21:20	66.4	66.4	66.4	42	42.6	0	0	---	0.00	29.852 
21:25	66.3	66.3	66.3	43	43.1	0	0	---	0.00	29.852 
21:30	66.1	66.1	66.1	42	42.3	0	2	68	0.00	29.842 
21:35	66.3	66.3	66.3	42	42.5	0	0	---	0.00	29.842 
21:40	66.3	66.3	66.3	43	43.1	0	1	68	0.00	29.842 
21:45	66.3	66.3	66.3	42	42.5	0	0	---	0.00	29.844 
21:50	66.1	66.1	66.1	42	42.3	0	0	---	0.00	29.844 
21:55	66.1	66.1	66.1	42	42.3	0	1	68	0.00	29.844 
22:00	66.0	66.0	66.0	42	42.2	0	0	---	0.00	29.846 
22:05	65.8	65.8	65.8	42	42.1	0	1	68	0.00	29.846 
22:10	65.8	65.8	65.8	42	42.1	0	0	---	0.00	29.846 
22:15	65.6	65.6	65.6	42	41.9	0	0	---	0.00	29.845 
22:20	65.6	65.6	65.6	41	41.3	0	2	68	0.00	29.845 
22:25	65.8	65.8	65.8	41	41.4	0	1	68	0.00	29.845 
22:30	65.6	65.6	65.6	41	41.3	0	0	---	0.00	29.853 
22:35	65.5	65.5	65.5	42	41.8	0	0	---	0.00	29.853 
22:40	65.3	65.3	65.3	42	41.6	0	0	---	0.00	29.853 
22:45	65.0	65.0	65.0	42	41.3	0	0	---	0.00	29.849 
22:50	64.8	64.8	64.8	41	40.5	0	1	68	0.00	29.849 
22:55	65.0	65.0	65.0	41	40.7	0	1	68	0.00	29.849 
23:00	65.0	65.0	65.0	42	41.3	0	0	---	0.00	29.849 
23:05	64.8	64.8	64.8	41	40.5	0	2	68	0.00	29.849 
23:10	64.8	64.8	64.8	42	41.2	0	1	68	0.00	29.849 
23:15	64.8	64.8	64.8	42	41.2	0	1	68	0.00	29.838 
23:20	64.7	64.7	64.7	42	41.1	0	0	---	0.00	29.838 
23:25	64.5	64.5	64.5	43	41.5	0	0	---	0.00	29.838 
23:30	64.2	64.2	64.2	43	41.2	0	1	68	0.00	29.836 
23:35	64.2	64.2	64.2	43	41.2	0	1	68	0.00	29.836 
23:40	64.0	64.0	64.0	44	41.6	0	0	---	0.00	29.836 
23:45	63.9	63.9	63.9	45	42.1	0	1	68	0.00	29.836 
23:50	63.7	63.7	63.7	45	42.0	0	0	---	0.00	29.836 
23:55	63.4	63.4	63.4	46	42.3	0	0	---	0.00	29.836 

CoCoRaHS
IN-AL-39
A2 Web Hosting
Creative Commons License
GoDaddy
search engine by freefind advanced

loaded 2018-11-15 15:57:19 • last modified 2010-11-18 10:43:29
Privacy PolicyDisclaimer
• wx.awcolley.com is powered by PmWiki v.2002016 •
• all content (unless otherwise noted) © 2018 A W Colley